Linthwaite, United Kingdom
Current Conditions -  °F | °C
As of 4:20 AM on Monday 26 Jan 2015 (Local Time) from EGNM Reporting Station
Light Rain Light Rain  
Wind Chill: 38°   Ceiling: Unl
Heat Index: 45°   Visibility: 6mi
Dew Point: 45°   Wind: 13mph
Humidity: 100%   Direction: 280°W
Pressure: 30.03"   Gusts: NA
Location:  53.62°N, 1.85°W
Report Text: EGNM 260420Z 28011KT 9999 -RADZ FEW008 SCT020 07/07 Q1017
Loading
Personal Weather Stations






























Interactive Weather Map New forecast layout! Learn more

10-Day Weather Forecast

Advertisements
Track Severe Weather on mobile